KALB/ALB METAR and TAF weather

Enter ICAO airport designator
Station Type Date Time Source
KALB METAR 2021/01/16 02:51 UTC NOAA

KALB 160251Z 13006KT 10SM FEW027 SCT039 OVC049 03/M01 A2988 RMK AO2 SLP121 T00331011 58025


Station Type Date Time Source
KALB Decoded METAR 2021/01/16 02:51 UTC NOAA

ALBANY INTERNATIONAL AIRPORT, NY, United States (KALB) 42-45N 73-48W
Jan 15, 2021 - 09:51 PM EST / 2021.01.16 0251 UTC
Wind: from the SE (130 degrees) at 7 MPH (6 KT):0
Visibility: 10 mile(s):0
Sky conditions: overcast
Temperature: 37.9 F (3.3 C)
Dew Point: 30.0 F (-1.1 C)
Relative Humidity: 72%
Pressure (altimeter): 29.88 in. Hg (1011 hPa)
Pressure tendency: 0.07 inches (2.5 hPa) lower than three hours ago
ob: KALB 160251Z 13006KT 10SM FEW027 SCT039 OVC049 03/M01 A2988 RMK AO2 SLP121 T00331011 58025
cycle: 3

Station Type Date Time Source
KALB TAF 2021/01/15 18:54 UTC NOAA

TAF KALB 151751Z 1518/1618 18009KT P6SM OVC250
TEMPO 1518/1519 5SM BR
FM152100 15008KT P6SM BKN025 OVC200
FM160600 10008KT 2SM -RASN BR BKN015 OVC025 WS020/12040KT
FM161000 11012KT 4SM -RA BR OVC010
FM161600 19008KT 5SM -RA BR OVC015

Example: see airport list